EW9309 Weather Reports


time (UTC)temp
F
wind
direction
speed
knots
gust
knots
rain 1hr
in
rain 24hr
in
rain mn
in
humidity
%
barometer
mb
20190425202056 98 287 1.7 6.1 0.00 0.00 0.00 14 1013.1
20190425201706 98 273 0.9 3.5 0.00 0.00 0.00 14 1013.2
20190425201056 97 128 0.0 3.5 0.00 0.00 0.00 14 1013.3
20190425200555 96 38 0.9 3.5 0.00 0.00 0.00 14 1013.3
20190425200154 96 27 0.9 4.3 0.00 0.00 0.00 13 1013.4
20190425195556 97 54 1.7 4.3 0.00 0.00 0.00 13 1013.4
20190425195055 96 82 1.7 4.3 0.00 0.00 0.00 14 1013.5
20190425194752 96 31 1.7 4.3 0.00 0.00 0.00 13 1013.6
20190425194052 95 215 0.9 6.1 0.00 0.00 0.00 14 1013.6
20190425193556 94 118 1.7 6.1 0.00 0.00 0.00 14 1013.7
20190425193202 96 165 0.9 4.3 0.00 0.00 0.00 14 1013.8
20190425192049 94 272 0.9 6.1 0.00 0.00 0.00 16 1013.9
20190425191749 94 281 2.6 5.2 0.00 0.00 0.00 15 1014.0
20190425191054 94 261 0.9 5.2 0.00 0.00 0.00 16 1014.1
20190425190544 93 253 1.7 4.3 0.00 0.00 0.00 17 1014.1
20190425190114 93 234 1.7 5.2 0.00 0.00 0.00 17 1014.2
20190425185535 93 31 0.9 5.2 0.00 0.00 0.00 17 1014.2
20190425185030 93 27 1.7 4.3 0.00 0.00 0.00 16 1014.3
20190425184558 92 5 1.7 3.5 0.00 0.00 0.00 18 1014.3
20190425184032 91 327 0.9 3.5 0.00 0.00 0.00 17 1014.4
20190425183531 91 5 0.0 3.5 0.00 0.00 0.00 18 1014.5
20190425183144 91 164 0.9 4.3 0.00 0.00 0.00 18 1014.6
20190425182521 91 164 0.9 4.3 0.00 0.00 0.00 18 1014.6
20190425182021 90 243 0.9 3.5 0.00 0.00 0.00 20 1014.7
20190425181526 90 273 0.9 4.3 0.00 0.00 0.00 20 1014.8
20190425181026 89 277 1.7 3.5 0.00 0.00 0.00 19 1014.8
20190425180518 89 184 0.0 2.6 0.00 0.00 0.00 23 1014.9
20190425180030 89 35 0.9 3.5 0.00 0.00 0.00 22 1014.9
20190425175526 89 92 1.7 6.1 0.00 0.00 0.00 22 1014.9
20190425175022 89 125 2.6 6.1 0.00 0.00 0.00 22 1015.0
20190425174523 87 166 0.9 3.5 0.00 0.00 0.00 23 1015.0
20190425174019 88 173 0.9 4.3 0.00 0.00 0.00 23 1015.0
20190425173519 87 222 0.9 3.5 0.00 0.00 0.00 23 1015.0
20190425173019 87 88 1.7 5.2 0.00 0.00 0.00 24 1015.1
20190425172512 86 101 0.9 5.2 0.00 0.00 0.00 24 1015.1
20190425172014 87 89 1.7 5.2 0.00 0.00 0.00 23 1015.2
20190425171530 86 86 0.0 3.5 0.00 0.00 0.00 25 1015.2
20190425171013 85 130 0.0 3.5 0.00 0.00 0.00 26 1015.2
20190425170513 85 120 1.7 3.5 0.00 0.00 0.00 24 1015.3
20190425170013 85 109 0.9 3.5 0.00 0.00 0.00 23 1015.3
20190425165506 84 109 0.9 3.5 0.00 0.00 0.00 25 1015.3
20190425154557 76 206 0.0 3.5 0.00 0.00 0.00 33 1015.4
20190425154052 75 259 0.9 2.6 0.00 0.00 0.00 33 1015.4
20190425153538 75 269 0.9 2.6 0.00 0.00 0.00 34 1015.4
20190425153314 74 223 0.0 3.5 0.00 0.00 0.00 34 1015.4
20190425152536 74 211 0.9 3.5 0.00 0.00 0.00 35 1015.4
20190425150535 71 268 1.7 4.3 0.00 0.00 0.00 36 1015.4
20190425150119 71 242 0.0 4.3 0.00 0.00 0.00 37 1015.4
20190425145525 70 240 1.7 4.3 0.00 0.00 0.00 38 1015.3
20190425145025 70 211 0.9 2.6 0.00 0.00 0.00 39 1015.2
20190425144552 70 206 1.7 3.5 0.00 0.00 0.00 40 1015.3
20190425143527 70 257 0.9 4.3 0.00 0.00 0.00 41 1015.2
20190425143054 70 234 0.9 4.3 0.00 0.00 0.00 42 1015.2
20190425142527 70 258 1.7 3.5 0.00 0.00 0.00 45 1015.0
20190425142021 69 64 0.0 0.0 0.00 0.00 0.00 41 1014.9
20190425141541 69 63 0.0 0.0 0.00 0.00 0.00 41 1014.7
20190425141033 69 55 0.0 0.0 0.00 0.00 0.00 41 1014.7
20190425140521 68 54 0.0 3.5 0.00 0.00 0.00 42 1014.6
20190425140048 67 55 0.9 3.5 0.00 0.00 0.00 43 1014.6
20190425135520 67 47 0.0 0.0 0.00 0.00 0.00 46 1014.6
20190425135019 66 51 0.0 0.0 0.00 0.00 0.00 47 1014.5
20190425134526 65 46 0.0 0.0 0.00 0.00 0.00 48 1014.4
20190425134025 65 43 0.0 0.0 0.00 0.00 0.00 48 1014.4
20190425133518 64 44 0.0 0.0 0.00 0.00 0.00 49 1014.3
20190425133031 63 74 0.0 0.0 0.00 0.00 0.00 49 1014.3
20190425132514 63 71 0.0 0.0 0.00 0.00 0.00 48 1014.2
20190425132024 62 67 0.0 0.0 0.00 0.00 0.00 48 1014.2
20190425131603 62 66 0.0 0.0 0.00 0.00 0.00 47 1014.1
20190425131017 62 66 0.0 0.0 0.00 0.00 0.00 46 1014.1
20190425125510 62 44 0.0 0.0 0.00 0.00 0.00 45 1013.8
20190425125004 63 44 0.0 0.0 0.00 0.00 0.00 45 1013.7
20190425124507 63 44 0.0 0.0 0.00 0.00 0.00 44 1013.6
20190425124008 63 44 0.0 0.0 0.00 0.00 0.00 44 1013.5
20190425123505 63 44 0.0 0.0 0.00 0.00 0.00 43 1013.5
20190425122600 63 44 0.0 0.0 0.00 0.00 0.00 44 1013.4
20190425122102 64 44 0.0 0.0 0.00 0.00 0.00 43 1013.4
20190425121715 64 44 0.0 0.0 0.00 0.00 0.00 43 1013.3
20190425121103 64 44 0.0 0.0 0.00 0.00 0.00 42 1013.3
20190425120559 64 45 0.0 0.0 0.00 0.00 0.00 42 1013.3
20190425120221 64 45 0.0 0.0 0.00 0.00 0.00 42 1013.2
20190425115602 64 36 0.0 0.0 0.00 0.00 0.00 42 1013.2
20190425115056 64 36 0.0 0.0 0.00 0.00 0.00 42 1013.3
20190425114735 64 36 0.0 0.0 0.00 0.00 0.00 43 1013.2
20190425114102 65 36 0.0 0.0 0.00 0.00 0.00 44 1013.1
20190425113605 65 36 0.0 0.0 0.00 0.00 0.00 45 1013.1
20190425113123 65 36 0.0 0.0 0.00 0.00 0.00 45 1013.0
20190425112556 65 36 0.0 0.0 0.00 0.00 0.00 43 1013.0
20190425112052 65 36 0.0 0.0 0.00 0.00 0.00 43 1013.0
20190425111712 65 36 0.0 0.0 0.00 0.00 0.00 42 1013.0
20190425111050 66 36 0.0 0.0 0.00 0.00 0.00 40 1013.0
20190425110550 66 36 0.0 0.0 0.00 0.00 0.00 40 1013.0
20190425110201 66 37 0.0 0.0 0.00 0.00 0.00 40 1012.9
20190425105549 67 37 0.0 0.0 0.00 0.00 0.00 40 1013.0
20190425105047 67 37 0.0 0.0 0.00 0.00 0.00 39 1012.9
20190425104622 67 37 0.0 0.0 0.00 0.00 0.00 38 1012.9
20190425104046 67 38 0.0 0.0 0.00 0.00 0.00 38 1012.8
20190425103544 67 38 0.0 0.0 0.00 0.00 0.00 38 1012.8
20190425103121 68 39 0.0 0.0 0.00 0.00 0.00 38 1012.7
20190425102541 68 42 0.0 0.0 0.00 0.00 0.00 37 1012.8
20190425102046 68 44 0.0 0.0 0.00 0.00 0.00 37 1012.7
20190425101618 68 44 0.0 0.0 0.00 0.00 0.00 37 1012.7
20190425101039 69 46 0.0 0.0 0.00 0.00 0.00 37 1012.7
20190425100543 69 43 0.0 0.0 0.00 0.00 0.00 37 1012.6
20190425100241 69 44 0.0 0.0 0.00 0.00 0.00 36 1012.5
20190425095536 70 44 0.0 0.0 0.00 0.00 0.00 36 1012.5
20190425095036 70 46 0.0 0.0 0.00 0.00 0.00 35 1012.5
20190425094703 70 47 0.0 0.0 0.00 0.00 0.00 35 1012.4
20190425094038 70 47 0.0 0.0 0.00 0.00 0.00 34 1012.3
20190425093550 71 51 0.0 0.0 0.00 0.00 0.00 34 1012.4
20190425093123 71 44 0.0 0.0 0.00 0.00 0.00 34 1012.4
20190425091528 71 49 0.0 0.0 0.00 0.00 0.00 32 1012.3
20190425090522 72 47 0.0 0.0 0.00 0.00 0.00 31 1012.2
20190425085555 72 49 0.0 0.0 0.00 0.00 0.00 31 1012.2
20190425085055 72 50 0.0 0.0 0.00 0.00 0.00 31 1012.2
20190425084613 72 50 0.0 0.0 0.00 0.00 0.00 31 1012.2
20190425084058 72 49 0.0 0.0 0.00 0.00 0.00 31 1012.2
20190425083552 72 50 0.0 0.0 0.00 0.00 0.00 31 1012.2
20190425083151 72 49 0.0 0.0 0.00 0.00 0.00 31 1012.2
20190425082551 73 50 0.0 0.0 0.00 0.00 0.00 31 1012.2
20190425082051 73 52 0.0 0.0 0.00 0.00 0.00 31 1012.3
20190425081054 73 53 0.0 0.0 0.00 0.00 0.00 31 1012.2
20190425080549 73 51 0.0 0.0 0.00 0.00 0.00 31 1012.3
20190425080136 73 50 0.0 0.0 0.00 0.00 0.00 31 1012.3
20190425075548 73 47 0.0 0.0 0.00 0.00 0.00 31 1012.3
20190425075048 73 42 0.0 0.0 0.00 0.00 0.00 30 1012.3
20190425074655 73 41 0.0 0.0 0.00 0.00 0.00 30 1012.4
20190425074047 73 355 0.0 2.6 0.00 0.00 0.00 29 1012.4
20190425073553 73 355 0.0 2.6 0.00 0.00 0.00 30 1012.4
20190425073211 73 355 0.9 2.6 0.00 0.00 0.00 29 1012.3
20190425072546 73 326 0.9 2.6 0.00 0.00 0.00 30 1012.3
20190425072049 73 311 0.0 0.0 0.00 0.00 0.00 30 1012.3
20190425071608 73 311 0.0 0.0 0.00 0.00 0.00 30 1012.2
20190425071050 73 311 0.0 0.0 0.00 0.00 0.00 30 1012.2
20190425070547 73 311 0.0 0.0 0.00 0.00 0.00 30 1012.2
20190425070059 73 311 0.0 0.0 0.00 0.00 0.00 30 1012.1
20190425065546 73 311 0.0 0.0 0.00 0.00 0.00 29 1012.1
20190425065050 74 311 0.0 0.0 0.00 0.00 0.00 30 1012.1
20190425064719 74 311 0.0 0.0 0.00 0.00 0.00 29 1012.1
20190425064041 74 311 0.0 0.0 0.00 0.00 0.00 29 1012.0
20190425063548 74 311 0.0 0.0 0.00 0.00 0.00 29 1012.0
20190425063126 75 311 0.0 0.0 0.00 0.00 0.00 28 1012.0
20190425062541 75 311 0.0 0.0 0.00 0.00 0.00 28 1012.0
20190425062047 75 311 0.0 0.0 0.00 0.00 0.00 28 1011.9
20190425061616 76 311 0.0 0.0 0.00 0.00 0.00 28 1011.9
20190425061048 76 311 0.0 0.0 0.00 0.00 0.00 27 1011.9
20190425060541 76 311 0.0 0.0 0.00 0.00 0.00 27 1011.9
20190425060123 76 311 0.0 0.0 0.00 0.00 0.00 27 1011.9
20190425055539 77 311 0.0 0.0 0.00 0.00 0.00 27 1011.8
20190425055043 77 311 0.0 0.0 0.00 0.00 0.00 27 1011.8
20190425054649 77 311 0.0 0.0 0.00 0.00 0.00 27 1011.8
20190425054045 78 311 0.0 1.7 0.00 0.00 0.00 26 1011.8
20190425053538 78 311 0.0 1.7 0.00 0.00 0.00 26 1011.8
20190425053111 78 311 0.0 0.0 0.00 0.00 0.00 25 1011.8
20190425052538 79 311 0.0 0.9 0.00 0.00 0.00 25 1011.8
20190425051557 79 311 0.0 1.7 0.00 0.00 0.00 24 1011.8
20190425051044 79 232 0.0 0.0 0.00 0.00 0.00 23 1011.9
20190425050342 79 232 0.0 0.0 0.00 0.00 0.00 23 1011.7
20190425045014 80 231 0.0 0.0 0.00 0.00 0.00 22 1011.7
20190425044545 80 232 0.0 0.0 0.00 0.00 0.00 22 1011.6
20190425044012 80 232 0.0 0.0 0.00 0.00 0.00 23 1011.5
20190425043512 80 232 0.0 0.0 0.00 0.00 0.00 24 1011.5
20190425043020 80 232 0.0 0.0 0.00 0.00 0.00 24 1011.5
20190425042514 80 232 0.0 0.0 0.00 0.00 0.00 24 1011.5
20190425042012 80 232 0.0 0.0 0.00 0.00 0.00 24 1011.5
20190425041512 80 232 0.0 1.7 0.00 0.00 0.00 23 1011.4
20190425041011 80 232 0.0 1.7 0.00 0.00 0.00 23 1011.4
20190425040511 80 232 0.9 5.2 0.00 0.00 0.00 23 1011.4
20190425040023 80 232 0.9 5.2 0.00 0.00 0.00 23 1011.3
20190425035510 80 252 0.0 0.0 0.00 0.00 0.00 22 1011.3
20190425035010 81 252 0.0 0.0 0.00 0.00 0.00 22 1011.2
20190425034517 81 252 0.0 0.0 0.00 0.00 0.00 22 1011.3
20190425034010 82 252 0.0 2.6 0.00 0.00 0.00 22 1011.3
20190425033509 82 252 0.0 2.6 0.00 0.00 0.00 21 1011.2
20190425033014 82 252 0.9 3.5 0.00 0.00 0.00 20 1011.2
20190425032512 82 252 1.7 3.5 0.00 0.00 0.00 20 1011.1
20190425032009 82 252 0.9 2.6 0.00 0.00 0.00 20 1011.0
20190425031525 83 253 0.9 2.6 0.00 0.00 0.00 20 1010.9
20190425031009 83 252 0.0 1.7 0.00 0.00 0.00 21 1010.9
20190425030510 83 258 0.9 2.6 0.00 0.00 0.00 20 1010.8
20190425030014 84 253 0.9 2.6 0.00 0.00 0.00 19 1010.8
20190425025508 84 253 0.0 1.7 0.00 0.00 0.00 18 1010.8
20190425025007 85 253 0.0 0.9 0.00 0.00 0.00 19 1010.8
20190425024511 85 253 0.0 1.7 0.00 0.00 0.00 18 1010.8
20190425023504 86 253 1.7 3.5 0.00 0.00 0.00 17 1010.6
20190425023013 86 253 1.7 4.3 0.00 0.00 0.00 17 1010.6
20190425022504 86 252 1.7 4.3 0.00 0.00 0.00 17 1010.5
20190425022004 87 254 0.9 4.3 0.00 0.00 0.00 17 1010.5
20190425021503 87 254 1.7 3.5 0.00 0.00 0.00 17 1010.4
20190425021002 87 252 0.9 3.5 0.00 0.00 0.00 17 1010.4
20190425020501 88 255 1.7 5.2 0.00 0.00 0.00 17 1010.3
20190425020002 88 256 1.7 7.8 0.00 0.00 0.00 17 1010.3
20190425015600 88 257 1.7 7.8 0.00 0.00 0.00 17 1010.3
20190425015104 89 268 2.6 6.1 0.00 0.00 0.00 17 1010.3
20190425014100 89 232 2.6 7.0 0.00 0.00 0.00 17 1010.2
20190425013607 90 250 1.7 7.0 0.00 0.00 0.00 16 1010.3
20190425013157 90 246 1.7 4.3 0.00 0.00 0.00 16 1010.2
20190425012558 91 277 1.7 7.0 0.00 0.00 0.00 16 1010.2
20190425012058 91 259 1.7 7.8 0.00 0.00 0.00 15 1010.2
20190425011651 91 284 3.5 7.8 0.00 0.00 0.00 15 1010.2
20190425011057 92 274 1.7 5.2 0.00 0.00 0.00 15 1010.3
20190425010600 92 259 2.6 8.7 0.00 0.00 0.00 15 1010.4
20190425010140 92 262 2.6 8.7 0.00 0.00 0.00 15 1010.4
20190425005602 92 276 1.7 7.0 0.00 0.00 0.00 14 1010.4
20190425005053 92 264 2.6 10.4 0.00 0.00 0.00 14 1010.5
20190425004718 92 242 4.3 10.4 0.00 0.00 0.00 13 1010.5
20190425004057 92 285 4.3 8.7 0.00 0.00 0.00 13 1010.5
20190425003554 92 259 3.5 9.6 0.00 0.00 0.00 13 1010.6
20190425003236 92 291 3.5 8.7 0.00 0.00 0.00 13 1010.6
20190425002551 92 262 4.3 8.7 0.00 0.00 0.00 13 1010.6
20190425002058 93 242 4.3 9.6 0.00 0.00 0.00 13 1010.7
20190425001704 93 240 4.3 11.3 0.00 0.00 0.00 13 1010.8
20190425001049 93 244 4.3 11.3 0.00 0.00 0.00 12 1010.7
20190425000554 93 278 5.2 10.4 0.00 0.00 0.00 13 1010.8
20190425000152 93 252 6.1 10.4 0.00 0.00 0.00 13 1010.8
20190424235548 94 281 4.3 9.6 0.00 0.00 0.00 12 1010.8
20190424235046 93 227 5.2 8.7 0.00 0.00 0.00 13 1010.9
20190424234652 93 265 5.2 10.4 0.00 0.00 0.00 13 1010.9
20190424234046 93 252 6.1 10.4 0.00 0.00 0.00 14 1010.9
20190424233548 93 227 2.6 10.4 0.00 0.00 0.00 14 1010.9
20190424233200 93 292 5.2 10.4 0.00 0.00 0.00 13 1010.9
20190424232544 93 292 3.5 9.6 0.00 0.00 0.00 14 1010.9
20190424232052 93 298 4.3 11.3 0.00 0.00 0.00 14 1011.0
20190424231728 94 262 5.2 11.3 0.00 0.00 0.00 14 1011.0
20190424231043 95 265 2.6 7.8 0.00 0.00 0.00 17 1011.0
20190424230542 94 273 2.6 8.7 0.00 0.00 0.00 18 1011.1
20190424230153 93 302 2.6 8.7 0.00 0.00 0.00 18 1011.1
20190424225542 93 293 5.2 12.2 0.00 0.00 0.00 17 1011.2
20190424225040 94 244 2.6 9.6 0.00 0.00 0.00 18 1011.2
20190424224626 94 284 1.7 9.6 0.00 0.00 0.00 18 1011.2
20190424224040 94 259 4.3 9.6 0.00 0.00 0.00 17 1011.3
20190424223538 94 281 3.5 8.7 0.00 0.00 0.00 17 1011.4
20190424223056 94 355 2.6 7.0 0.00 0.00 0.00 17 1011.5
20190424222537 93 279 2.6 9.6 0.00 0.00 0.00 17 1011.6
20190424222039 94 243 1.7 9.6 0.00 0.00 0.00 18 1011.7
20190424221632 93 246 4.3 9.6 0.00 0.00 0.00 17 1011.7
20190424221035 94 360 0.9 7.0 0.00 0.00 0.00 18 1011.7
20190424220534 93 337 1.7 7.8 0.00 0.00 0.00 18 1011.9
20190424220043 93 264 2.6 7.8 0.00 0.00 0.00 19 1012.0
20190424215531 93 327 2.6 7.0 0.00 0.00 0.00 18 1012.1
20190424215030 92 294 0.9 9.6 0.00 0.00 0.00 17 1012.2
20190424214616 93 276 4.3 9.6 0.00 0.00 0.00 18 1012.3
20190424214031 92 247 1.7 6.1 0.00 0.00 0.00 20 1012.3
20190424213530 91 294 0.0 7.0 0.00 0.00 0.00 20 1012.4
20190424213055 93 296 2.6 7.0 0.00 0.00 0.00 19 1012.5
20190424212526 93 209 0.9 5.2 0.00 0.00 0.00 19 1012.5
20190424212030 93 155 0.9 7.0 0.00 0.00 0.00 18 1012.7
20190424211707 92 264 2.6 7.0 0.00 0.00 0.00 19 1012.8
20190424211023 92 292 2.6 7.0 0.00 0.00 0.00 20 1012.9
20190424210522 92 275 3.5 7.0 0.00 0.00 0.00 18 1012.9
20190424210030 91 287 0.9 7.0 0.00 0.00 0.00 19 1013.0
20190424205521 90 254 2.6 6.1 0.00 0.00 0.00 20 1013.1
20190424205019 91 329 0.9 7.0 0.00 0.00 0.00 20 1013.1
20190424204525 91 266 3.5 7.0 0.00 0.00 0.00 20 1013.3
20190424204020 91 269 1.7 6.1 0.00 0.00 0.00 20 1013.4
20190424203516 91 276 1.7 6.1 0.00 0.00 0.00 19 1013.4
20190424203022 91 48 2.6 6.1 0.00 0.00 0.00 19 1013.5
20190424202523 90 24 2.6 7.8 0.00 0.00 0.00 21 1013.5